<?xml version="1.0" encoding="utf-8"?>
<gpx xmlns:xsi="http://www.w3.org/2001/XMLSchema-instance" xmlns:xsd="http://www.w3.org/2001/XMLSchema" version="1.1" creator="Shapelink.com" xmlns="http://www.topografix.com/GPX/1/1" xmlns:gpxtpx="http://www.garmin.com/xmlschemas/TrackPointExtension/v1">
  <metadata>
    <name>Längdskidåkning - Klassisk 1.71 km, 2015-03-18</name>
    <desc></desc>
    <author><name>Alexander Engvall</name></author> 
    <time>2015-03-18T16:12:06Z</time>
  </metadata>
  <trk>
    <name>Längdskidåkning - Klassisk 1.71 km, 2015-03-18</name>
    <trkseg>
      <trkpt lat="45.832608145699" lon="7.820472207557">
        <ele>1622.6</ele>
        <time>2015-03-18T16:12:06Z</time>
      </trkpt>
      <trkpt lat="45.832837306845" lon="7.820343545392">
        <ele>1622.8</ele>
        <time>2015-03-18T16:12:13Z</time>
      </trkpt>
      <trkpt lat="45.832884748399" lon="7.820288895404">
        <ele>1622.4</ele>
        <time>2015-03-18T16:12:14Z</time>
      </trkpt>
      <trkpt lat="45.832921880216" lon="7.820237346719">
        <ele>1621.6</ele>
        <time>2015-03-18T16:12:15Z</time>
      </trkpt>
      <trkpt lat="45.832950211038" lon="7.820106840536">
        <ele>1620.8</ele>
        <time>2015-03-18T16:12:17Z</time>
      </trkpt>
      <trkpt lat="45.832946103907" lon="7.820042048449">
        <ele>1620.6</ele>
        <time>2015-03-18T16:12:18Z</time>
      </trkpt>
      <trkpt lat="45.832921712578" lon="7.819975412344">
        <ele>1620.6</ele>
        <time>2015-03-18T16:12:20Z</time>
      </trkpt>
      <trkpt lat="45.832906122244" lon="7.819945237504">
        <ele>1620.8</ele>
        <time>2015-03-18T16:12:21Z</time>
      </trkpt>
      <trkpt lat="45.83288382639" lon="7.819919085976">
        <ele>1621.4</ele>
        <time>2015-03-18T16:12:22Z</time>
      </trkpt>
      <trkpt lat="45.832873097558" lon="7.819906680764">
        <ele>1622</ele>
        <time>2015-03-18T16:12:23Z</time>
      </trkpt>
      <trkpt lat="45.832856585215" lon="7.819884720186">
        <ele>1622.4</ele>
        <time>2015-03-18T16:12:24Z</time>
      </trkpt>
      <trkpt lat="45.832843425632" lon="7.819871141508">
        <ele>1623</ele>
        <time>2015-03-18T16:12:25Z</time>
      </trkpt>
      <trkpt lat="45.832795145888" lon="7.819815066597">
        <ele>1624</ele>
        <time>2015-03-18T16:12:28Z</time>
      </trkpt>
      <trkpt lat="45.832777124803" lon="7.819790759087">
        <ele>1624.2</ele>
        <time>2015-03-18T16:12:29Z</time>
      </trkpt>
      <trkpt lat="45.832729934706" lon="7.819689673373">
        <ele>1625</ele>
        <time>2015-03-18T16:12:33Z</time>
      </trkpt>
      <trkpt lat="45.832717613313" lon="7.819656648687">
        <ele>1625.4</ele>
        <time>2015-03-18T16:12:34Z</time>
      </trkpt>
      <trkpt lat="45.832718954417" lon="7.819616499386">
        <ele>1625.6</ele>
        <time>2015-03-18T16:12:36Z</time>
      </trkpt>
      <trkpt lat="45.832721804263" lon="7.819605938192">
        <ele>1626</ele>
        <time>2015-03-18T16:12:38Z</time>
      </trkpt>
      <trkpt lat="45.832869241884" lon="7.819432097586">
        <ele>1627</ele>
        <time>2015-03-18T16:13:38Z</time>
      </trkpt>
      <trkpt lat="45.832979631507" lon="7.819363952739">
        <ele>1626</ele>
        <time>2015-03-18T16:13:41Z</time>
      </trkpt>
      <trkpt lat="45.832998239325" lon="7.819323300524">
        <ele>1625.6</ele>
        <time>2015-03-18T16:13:42Z</time>
      </trkpt>
      <trkpt lat="45.832973847996" lon="7.819240068257">
        <ele>1625.2</ele>
        <time>2015-03-18T16:13:45Z</time>
      </trkpt>
      <trkpt lat="45.832876869413" lon="7.819245432673">
        <ele>1626</ele>
        <time>2015-03-18T16:13:48Z</time>
      </trkpt>
      <trkpt lat="45.832780226106" lon="7.819233530375">
        <ele>1626.4</ele>
        <time>2015-03-18T16:13:51Z</time>
      </trkpt>
      <trkpt lat="45.832750805637" lon="7.819212240349">
        <ele>1626.6</ele>
        <time>2015-03-18T16:13:52Z</time>
      </trkpt>
      <trkpt lat="45.832728258326" lon="7.819196901472">
        <ele>1626.6</ele>
        <time>2015-03-18T16:13:53Z</time>
      </trkpt>
      <trkpt lat="45.832718200046" lon="7.819177455464">
        <ele>1626.8</ele>
        <time>2015-03-18T16:13:54Z</time>
      </trkpt>
      <trkpt lat="45.832724067376" lon="7.819065892375">
        <ele>1627.6</ele>
        <time>2015-03-18T16:13:57Z</time>
      </trkpt>
      <trkpt lat="45.832743932479" lon="7.819039908485">
        <ele>1627.8</ele>
        <time>2015-03-18T16:13:58Z</time>
      </trkpt>
      <trkpt lat="45.832834959913" lon="7.818987856886">
        <ele>1628.4</ele>
        <time>2015-03-18T16:14:01Z</time>
      </trkpt>
      <trkpt lat="45.832945349536" lon="7.818962459729">
        <ele>1628.2</ele>
        <time>2015-03-18T16:14:04Z</time>
      </trkpt>
      <trkpt lat="45.833007627053" lon="7.818955251295">
        <ele>1628</ele>
        <time>2015-03-18T16:14:06Z</time>
      </trkpt>
      <trkpt lat="45.833097145745" lon="7.818944438644">
        <ele>1628</ele>
        <time>2015-03-18T16:14:10Z</time>
      </trkpt>
      <trkpt lat="45.833094128261" lon="7.818945779748">
        <ele>1628</ele>
        <time>2015-03-18T16:14:11Z</time>
      </trkpt>
      <trkpt lat="45.832945684812" lon="7.819004117772">
        <ele>1628</ele>
        <time>2015-03-18T16:14:41Z</time>
      </trkpt>
      <trkpt lat="45.832912576307" lon="7.819009901283">
        <ele>1628</ele>
        <time>2015-03-18T16:14:42Z</time>
      </trkpt>
      <trkpt lat="45.832760193365" lon="7.819052648973">
        <ele>1628.4</ele>
        <time>2015-03-18T16:14:47Z</time>
      </trkpt>
      <trkpt lat="45.832750805637" lon="7.81905876776">
        <ele>1628.8</ele>
        <time>2015-03-18T16:14:50Z</time>
      </trkpt>
      <trkpt lat="45.832765557781" lon="7.819063629262">
        <ele>1629.2</ele>
        <time>2015-03-18T16:14:53Z</time>
      </trkpt>
      <trkpt lat="45.832853400093" lon="7.819030688395">
        <ele>1629.2</ele>
        <time>2015-03-18T16:14:57Z</time>
      </trkpt>
      <trkpt lat="45.832992455814" lon="7.819001687021">
        <ele>1628.2</ele>
        <time>2015-03-18T16:15:01Z</time>
      </trkpt>
      <trkpt lat="45.833030425821" lon="7.818996993157">
        <ele>1628</ele>
        <time>2015-03-18T16:15:02Z</time>
      </trkpt>
      <trkpt lat="45.833138552331" lon="7.818932452527">
        <ele>1627</ele>
        <time>2015-03-18T16:15:06Z</time>
      </trkpt>
      <trkpt lat="45.83313528339" lon="7.818938236038">
        <ele>1627.4</ele>
        <time>2015-03-18T16:15:08Z</time>
      </trkpt>
      <trkpt lat="45.833081052497" lon="7.818701279725">
        <ele>1629</ele>
        <time>2015-03-18T16:15:48Z</time>
      </trkpt>
      <trkpt lat="45.83298105643" lon="7.818685605572">
        <ele>1629.6</ele>
        <time>2015-03-18T16:15:52Z</time>
      </trkpt>
      <trkpt lat="45.83292154494" lon="7.81869583149">
        <ele>1630</ele>
        <time>2015-03-18T16:15:54Z</time>
      </trkpt>
      <trkpt lat="45.832874690119" lon="7.818717037697">
        <ele>1630.4</ele>
        <time>2015-03-18T16:15:56Z</time>
      </trkpt>
      <trkpt lat="45.832786261074" lon="7.818818542506">
        <ele>1630.8</ele>
        <time>2015-03-18T16:16:00Z</time>
      </trkpt>
      <trkpt lat="45.832733371285" lon="7.819019121373">
        <ele>1630.6</ele>
        <time>2015-03-18T16:16:04Z</time>
      </trkpt>
      <trkpt lat="45.832706297748" lon="7.819224645561">
        <ele>1630.2</ele>
        <time>2015-03-18T16:16:07Z</time>
      </trkpt>
      <trkpt lat="45.83269607183" lon="7.819560592113">
        <ele>1629.4</ele>
        <time>2015-03-18T16:16:11Z</time>
      </trkpt>
      <trkpt lat="45.832695568916" lon="7.819646925683">
        <ele>1628.8</ele>
        <time>2015-03-18T16:16:12Z</time>
      </trkpt>
      <trkpt lat="45.832677799288" lon="7.819730409407">
        <ele>1628.8</ele>
        <time>2015-03-18T16:16:13Z</time>
      </trkpt>
      <trkpt lat="45.832630776829" lon="7.819869381309">
        <ele>1628</ele>
        <time>2015-03-18T16:16:15Z</time>
      </trkpt>
      <trkpt lat="45.832607307509" lon="7.819953451766">
        <ele>1627.8</ele>
        <time>2015-03-18T16:16:16Z</time>
      </trkpt>
      <trkpt lat="45.832502366121" lon="7.820120503033">
        <ele>1627.6</ele>
        <time>2015-03-18T16:16:19Z</time>
      </trkpt>
      <trkpt lat="45.832423743899" lon="7.820215218503">
        <ele>1627.4</ele>
        <time>2015-03-18T16:16:21Z</time>
      </trkpt>
      <trkpt lat="45.832386025349" lon="7.820273975622">
        <ele>1627.2</ele>
        <time>2015-03-18T16:16:22Z</time>
      </trkpt>
      <trkpt lat="45.832358867993" lon="7.82034538941">
        <ele>1627.4</ele>
        <time>2015-03-18T16:16:23Z</time>
      </trkpt>
      <trkpt lat="45.832309247145" lon="7.820491066832">
        <ele>1626.8</ele>
        <time>2015-03-18T16:16:25Z</time>
      </trkpt>
      <trkpt lat="45.83227446226" lon="7.820706481662">
        <ele>1626.2</ele>
        <time>2015-03-18T16:16:27Z</time>
      </trkpt>
      <trkpt lat="45.832244203601" lon="7.820828438307">
        <ele>1625.4</ele>
        <time>2015-03-18T16:16:28Z</time>
      </trkpt>
      <trkpt lat="45.832151835063" lon="7.821040835653">
        <ele>1623.8</ele>
        <time>2015-03-18T16:16:30Z</time>
      </trkpt>
      <trkpt lat="45.832092994125" lon="7.821146447593">
        <ele>1622.6</ele>
        <time>2015-03-18T16:16:31Z</time>
      </trkpt>
      <trkpt lat="45.832037003033" lon="7.821238983769">
        <ele>1621.4</ele>
        <time>2015-03-18T16:16:32Z</time>
      </trkpt>
      <trkpt lat="45.831924015021" lon="7.821413914022">
        <ele>1619.8</ele>
        <time>2015-03-18T16:16:34Z</time>
      </trkpt>
      <trkpt lat="45.831863581522" lon="7.821496894832">
        <ele>1619.6</ele>
        <time>2015-03-18T16:16:35Z</time>
      </trkpt>
      <trkpt lat="45.831663254112" lon="7.821717422621">
        <ele>1619.6</ele>
        <time>2015-03-18T16:16:38Z</time>
      </trkpt>
      <trkpt lat="45.831596450369" lon="7.821758326293">
        <ele>1619.2</ele>
        <time>2015-03-18T16:16:39Z</time>
      </trkpt>
      <trkpt lat="45.831526377685" lon="7.821778023758">
        <ele>1618.4</ele>
        <time>2015-03-18T16:16:40Z</time>
      </trkpt>
      <trkpt lat="45.831387238145" lon="7.821772407885">
        <ele>1617.4</ele>
        <time>2015-03-18T16:16:42Z</time>
      </trkpt>
      <trkpt lat="45.831204848001" lon="7.821806270761">
        <ele>1617.8</ele>
        <time>2015-03-18T16:16:45Z</time>
      </trkpt>
      <trkpt lat="45.831086076478" lon="7.821835272135">
        <ele>1617</ele>
        <time>2015-03-18T16:16:47Z</time>
      </trkpt>
      <trkpt lat="45.831028157549" lon="7.821858992912">
        <ele>1616.4</ele>
        <time>2015-03-18T16:16:48Z</time>
      </trkpt>
      <trkpt lat="45.830962024358" lon="7.821886904639">
        <ele>1615.8</ele>
        <time>2015-03-18T16:16:49Z</time>
      </trkpt>
      <trkpt lat="45.83073219266" lon="7.822020344487">
        <ele>1615.2</ele>
        <time>2015-03-18T16:16:53Z</time>
      </trkpt>
      <trkpt lat="45.830554664018" lon="7.822122855124">
        <ele>1614.6</ele>
        <time>2015-03-18T16:16:56Z</time>
      </trkpt>
      <trkpt lat="45.830499259659" lon="7.822148587557">
        <ele>1614.4</ele>
        <time>2015-03-18T16:16:57Z</time>
      </trkpt>
      <trkpt lat="45.830314103488" lon="7.822179097673">
        <ele>1614</ele>
        <time>2015-03-18T16:17:00Z</time>
      </trkpt>
      <trkpt lat="45.830246796831" lon="7.822180774053">
        <ele>1614</ele>
        <time>2015-03-18T16:17:01Z</time>
      </trkpt>
      <trkpt lat="45.830180160726" lon="7.822199214233">
        <ele>1613.8</ele>
        <time>2015-03-18T16:17:02Z</time>
      </trkpt>
      <trkpt lat="45.830126348928" lon="7.822214050196">
        <ele>1613.6</ele>
        <time>2015-03-18T16:17:03Z</time>
      </trkpt>
      <trkpt lat="45.830064825782" lon="7.822221342449">
        <ele>1613.4</ele>
        <time>2015-03-18T16:17:04Z</time>
      </trkpt>
      <trkpt lat="45.830010175794" lon="7.822236010774">
        <ele>1613.2</ele>
        <time>2015-03-18T16:17:05Z</time>
      </trkpt>
      <trkpt lat="45.829868940779" lon="7.822345059293">
        <ele>1612.8</ele>
        <time>2015-03-18T16:17:08Z</time>
      </trkpt>
      <trkpt lat="45.829840442319" lon="7.822415886348">
        <ele>1612.6</ele>
        <time>2015-03-18T16:17:09Z</time>
      </trkpt>
      <trkpt lat="45.829836754283" lon="7.822571286774">
        <ele>1612.2</ele>
        <time>2015-03-18T16:17:11Z</time>
      </trkpt>
      <trkpt lat="45.829900791999" lon="7.822685196795">
        <ele>1611.4</ele>
        <time>2015-03-18T16:17:13Z</time>
      </trkpt>
      <trkpt lat="45.82993758854" lon="7.822723250621">
        <ele>1611.4</ele>
        <time>2015-03-18T16:17:14Z</time>
      </trkpt>
      <trkpt lat="45.830070525474" lon="7.822810590019">
        <ele>1610.8</ele>
        <time>2015-03-18T16:17:17Z</time>
      </trkpt>
      <trkpt lat="45.830114865725" lon="7.82282810819">
        <ele>1610.8</ele>
        <time>2015-03-18T16:17:18Z</time>
      </trkpt>
      <trkpt lat="45.830204300598" lon="7.822803046309">
        <ele>1610.8</ele>
        <time>2015-03-18T16:17:21Z</time>
      </trkpt>
      <trkpt lat="45.830297926421" lon="7.822708666115">
        <ele>1611</ele>
        <time>2015-03-18T16:17:24Z</time>
      </trkpt>
      <trkpt lat="45.830396497565" lon="7.822548404187">
        <ele>1611.4</ele>
        <time>2015-03-18T16:17:28Z</time>
      </trkpt>
      <trkpt lat="45.830416614125" lon="7.822510182723">
        <ele>1611.6</ele>
        <time>2015-03-18T16:17:29Z</time>
      </trkpt>
      <trkpt lat="45.830522561341" lon="7.822328882226">
        <ele>1612</ele>
        <time>2015-03-18T16:17:34Z</time>
      </trkpt>
      <trkpt lat="45.830570338171" lon="7.822273394048">
        <ele>1612.8</ele>
        <time>2015-03-18T16:17:36Z</time>
      </trkpt>
      <trkpt lat="45.830627586548" lon="7.822240369362">
        <ele>1613.4</ele>
        <time>2015-03-18T16:17:38Z</time>
      </trkpt>
      <trkpt lat="45.830771922866" lon="7.822149928661">
        <ele>1613.4</ele>
        <time>2015-03-18T16:17:43Z</time>
      </trkpt>
      <trkpt lat="45.830804696095" lon="7.822140121838">
        <ele>1613.6</ele>
        <time>2015-03-18T16:17:44Z</time>
      </trkpt>
      <trkpt lat="45.830840738265" lon="7.822135847069">
        <ele>1614</ele>
        <time>2015-03-18T16:17:45Z</time>
      </trkpt>
      <trkpt lat="45.83093419645" lon="7.822099385804">
        <ele>1614.6</ele>
        <time>2015-03-18T16:17:48Z</time>
      </trkpt>
      <trkpt lat="45.831047603557" lon="7.822027301464">
        <ele>1614.6</ele>
        <time>2015-03-18T16:17:52Z</time>
      </trkpt>
      <trkpt lat="45.83114206757" lon="7.821979105539">
        <ele>1615.2</ele>
        <time>2015-03-18T16:17:55Z</time>
      </trkpt>
      <trkpt lat="45.831177942102" lon="7.821960749178">
        <ele>1615.2</ele>
        <time>2015-03-18T16:17:56Z</time>
      </trkpt>
      <trkpt lat="45.831306101353" lon="7.821896711462">
        <ele>1615.2</ele>
        <time>2015-03-18T16:18:00Z</time>
      </trkpt>
      <trkpt lat="45.831410456008" lon="7.821838960171">
        <ele>1615.8</ele>
        <time>2015-03-18T16:18:04Z</time>
      </trkpt>
      <trkpt lat="45.83143459588" lon="7.821814987937">
        <ele>1616</ele>
        <time>2015-03-18T16:18:05Z</time>
      </trkpt>
      <trkpt lat="45.831462423788" lon="7.821793027359">
        <ele>1616.2</ele>
        <time>2015-03-18T16:18:06Z</time>
      </trkpt>
      <trkpt lat="45.831474745181" lon="7.821769222763">
        <ele>1616.4</ele>
        <time>2015-03-18T16:18:07Z</time>
      </trkpt>
      <trkpt lat="45.831530065721" lon="7.821689091799">
        <ele>1616.6</ele>
        <time>2015-03-18T16:18:10Z</time>
      </trkpt>
      <trkpt lat="45.831556887801" lon="7.821646344109">
        <ele>1617</ele>
        <time>2015-03-18T16:18:12Z</time>
      </trkpt>
      <trkpt lat="45.831632743996" lon="7.82152723731">
        <ele>1617.4</ele>
        <time>2015-03-18T16:18:16Z</time>
      </trkpt>
      <trkpt lat="45.831688315993" lon="7.821471832951">
        <ele>1617.4</ele>
        <time>2015-03-18T16:18:18Z</time>
      </trkpt>
      <trkpt lat="45.831730728407" lon="7.821420954818">
        <ele>1617.8</ele>
        <time>2015-03-18T16:18:20Z</time>
      </trkpt>
      <trkpt lat="45.831834999243" lon="7.821302686209">
        <ele>1618.2</ele>
        <time>2015-03-18T16:18:25Z</time>
      </trkpt>
      <trkpt lat="45.831906664488" lon="7.821267901324">
        <ele>1618.6</ele>
        <time>2015-03-18T16:18:28Z</time>
      </trkpt>
      <trkpt lat="45.831917896234" lon="7.821239989597">
        <ele>1618.8</ele>
        <time>2015-03-18T16:18:29Z</time>
      </trkpt>
      <trkpt lat="45.831955195689" lon="7.821167150886">
        <ele>1619.4</ele>
        <time>2015-03-18T16:18:32Z</time>
      </trkpt>
      <trkpt lat="45.831972210946" lon="7.821142424281">
        <ele>1619.8</ele>
        <time>2015-03-18T16:18:33Z</time>
      </trkpt>
      <trkpt lat="45.832027531486" lon="7.821030945011">
        <ele>1620.2</ele>
        <time>2015-03-18T16:18:37Z</time>
      </trkpt>
      <trkpt lat="45.832049994978" lon="7.821001775999">
        <ele>1620.6</ele>
        <time>2015-03-18T16:18:41Z</time>
      </trkpt>
      <trkpt lat="45.832066255864" lon="7.820983000543">
        <ele>1620.8</ele>
        <time>2015-03-18T16:18:42Z</time>
      </trkpt>
      <trkpt lat="45.831991656954" lon="7.821148794525">
        <ele>1620.4</ele>
        <time>2015-03-18T16:20:39Z</time>
      </trkpt>
      <trkpt lat="45.831983526511" lon="7.821185423428">
        <ele>1620.4</ele>
        <time>2015-03-18T16:20:40Z</time>
      </trkpt>
      <trkpt lat="45.831919153519" lon="7.821393797462">
        <ele>1620</ele>
        <time>2015-03-18T16:20:44Z</time>
      </trkpt>
      <trkpt lat="45.83184195622" lon="7.821519106867">
        <ele>1619.6</ele>
        <time>2015-03-18T16:20:46Z</time>
      </trkpt>
      <trkpt lat="45.831789569345" lon="7.821576606701">
        <ele>1619.4</ele>
        <time>2015-03-18T16:20:47Z</time>
      </trkpt>
      <trkpt lat="45.83166928908" lon="7.821686409591">
        <ele>1618.6</ele>
        <time>2015-03-18T16:20:49Z</time>
      </trkpt>
      <trkpt lat="45.831609023219" lon="7.821724295779">
        <ele>1618.2</ele>
        <time>2015-03-18T16:20:50Z</time>
      </trkpt>
      <trkpt lat="45.831544901684" lon="7.821751620773">
        <ele>1617.8</ele>
        <time>2015-03-18T16:20:51Z</time>
      </trkpt>
      <trkpt lat="45.831422525944" lon="7.821747262185">
        <ele>1617.4</ele>
        <time>2015-03-18T16:20:53Z</time>
      </trkpt>
      <trkpt lat="45.831369384698" lon="7.821755727904">
        <ele>1617.2</ele>
        <time>2015-03-18T16:20:54Z</time>
      </trkpt>
      <trkpt lat="45.831153718411" lon="7.821795625748">
        <ele>1616.6</ele>
        <time>2015-03-18T16:20:58Z</time>
      </trkpt>
      <trkpt lat="45.831102253545" lon="7.821817083412">
        <ele>1616.4</ele>
        <time>2015-03-18T16:20:59Z</time>
      </trkpt>
      <trkpt lat="45.830925060179" lon="7.821900902412">
        <ele>1616</ele>
        <time>2015-03-18T16:21:02Z</time>
      </trkpt>
      <trkpt lat="45.830870661648" lon="7.821935184383">
        <ele>1615.8</ele>
        <time>2015-03-18T16:21:03Z</time>
      </trkpt>
      <trkpt lat="45.830694138834" lon="7.822011878768">
        <ele>1615.2</ele>
        <time>2015-03-18T16:21:06Z</time>
      </trkpt>
      <trkpt lat="45.830631274584" lon="7.822030738043">
        <ele>1615.2</ele>
        <time>2015-03-18T16:21:07Z</time>
      </trkpt>
      <trkpt lat="45.830461624928" lon="7.822109444084">
        <ele>1614.4</ele>
        <time>2015-03-18T16:21:10Z</time>
      </trkpt>
      <trkpt lat="45.830343775414" lon="7.82215085067">
        <ele>1614.2</ele>
        <time>2015-03-18T16:21:12Z</time>
      </trkpt>
      <trkpt lat="45.830283844829" lon="7.82216677628">
        <ele>1614.2</ele>
        <time>2015-03-18T16:21:13Z</time>
      </trkpt>
      <trkpt lat="45.830063233221" lon="7.822206087391">
        <ele>1613.6</ele>
        <time>2015-03-18T16:21:17Z</time>
      </trkpt>
      <trkpt lat="45.830008247957" lon="7.822218576422">
        <ele>1613.4</ele>
        <time>2015-03-18T16:21:18Z</time>
      </trkpt>
      <trkpt lat="45.829908084252" lon="7.822247326339">
        <ele>1613.6</ele>
        <time>2015-03-18T16:21:20Z</time>
      </trkpt>
      <trkpt lat="45.829825522537" lon="7.822357129229">
        <ele>1613.4</ele>
        <time>2015-03-18T16:21:22Z</time>
      </trkpt>
      <trkpt lat="45.82979174348" lon="7.822508506343">
        <ele>1613.2</ele>
        <time>2015-03-18T16:21:24Z</time>
      </trkpt>
      <trkpt lat="45.829805322158" lon="7.822574471896">
        <ele>1612.6</ele>
        <time>2015-03-18T16:21:25Z</time>
      </trkpt>
      <trkpt lat="45.829900875818" lon="7.822671031384">
        <ele>1612</ele>
        <time>2015-03-18T16:21:28Z</time>
      </trkpt>
      <trkpt lat="45.829932643219" lon="7.822682933682">
        <ele>1611.8</ele>
        <time>2015-03-18T16:21:29Z</time>
      </trkpt>
      <trkpt lat="45.830059209909" lon="7.822754431289">
        <ele>1611</ele>
        <time>2015-03-18T16:21:32Z</time>
      </trkpt>
      <trkpt lat="45.830181837106" lon="7.822703720794">
        <ele>1611</ele>
        <time>2015-03-18T16:21:35Z</time>
      </trkpt>
      <trkpt lat="45.830243360252" lon="7.82264789734">
        <ele>1611</ele>
        <time>2015-03-18T16:21:37Z</time>
      </trkpt>
      <trkpt lat="45.830268086857" lon="7.822605736383">
        <ele>1610.8</ele>
        <time>2015-03-18T16:21:38Z</time>
      </trkpt>
      <trkpt lat="45.830304799579" lon="7.822555612621">
        <ele>1611.2</ele>
        <time>2015-03-18T16:21:40Z</time>
      </trkpt>
      <trkpt lat="45.830351570581" lon="7.822536837165">
        <ele>1611.6</ele>
        <time>2015-03-18T16:21:42Z</time>
      </trkpt>
      <trkpt lat="45.830369340209" lon="7.822535496061">
        <ele>1611.6</ele>
        <time>2015-03-18T16:21:43Z</time>
      </trkpt>
      <trkpt lat="45.830402029619" lon="7.822497442235">
        <ele>1612.2</ele>
        <time>2015-03-18T16:21:45Z</time>
      </trkpt>
      <trkpt lat="45.830428600242" lon="7.822442373152">
        <ele>1612.6</ele>
        <time>2015-03-18T16:21:47Z</time>
      </trkpt>
      <trkpt lat="45.830473359588" lon="7.822357129229">
        <ele>1612.2</ele>
        <time>2015-03-18T16:21:50Z</time>
      </trkpt>
      <trkpt lat="45.830508312111" lon="7.822306251096">
        <ele>1612</ele>
        <time>2015-03-18T16:21:52Z</time>
      </trkpt>
      <trkpt lat="45.830538654589" lon="7.822273561686">
        <ele>1612.4</ele>
        <time>2015-03-18T16:21:54Z</time>
      </trkpt>
      <trkpt lat="45.830598417536" lon="7.822204159554">
        <ele>1613.4</ele>
        <time>2015-03-18T16:21:57Z</time>
      </trkpt>
      <trkpt lat="45.830626999815" lon="7.822191419066">
        <ele>1613.6</ele>
        <time>2015-03-18T16:21:58Z</time>
      </trkpt>
      <trkpt lat="45.830659689225" lon="7.822176080189">
        <ele>1613.8</ele>
        <time>2015-03-18T16:21:59Z</time>
      </trkpt>
      <trkpt lat="45.830741664207" lon="7.822136852897">
        <ele>1614</ele>
        <time>2015-03-18T16:22:02Z</time>
      </trkpt>
      <trkpt lat="45.830836631134" lon="7.822110198455">
        <ele>1614.4</ele>
        <time>2015-03-18T16:22:05Z</time>
      </trkpt>
      <trkpt lat="45.830876277521" lon="7.822094272845">
        <ele>1614.4</ele>
        <time>2015-03-18T16:22:06Z</time>
      </trkpt>
      <trkpt lat="45.830999994365" lon="7.82204104778">
        <ele>1614.4</ele>
        <time>2015-03-18T16:22:10Z</time>
      </trkpt>
      <trkpt lat="45.831129746177" lon="7.821973908761">
        <ele>1615</ele>
        <time>2015-03-18T16:22:14Z</time>
      </trkpt>
      <trkpt lat="45.831167297089" lon="7.821972232381">
        <ele>1615</ele>
        <time>2015-03-18T16:22:15Z</time>
      </trkpt>
      <trkpt lat="45.831229071692" lon="7.821950104165">
        <ele>1615.2</ele>
        <time>2015-03-18T16:22:17Z</time>
      </trkpt>
      <trkpt lat="45.831335270365" lon="7.821872906866">
        <ele>1615.6</ele>
        <time>2015-03-18T16:22:21Z</time>
      </trkpt>
      <trkpt lat="45.831424872876" lon="7.82181222191">
        <ele>1615.8</ele>
        <time>2015-03-18T16:22:25Z</time>
      </trkpt>
      <trkpt lat="45.831446581997" lon="7.821801576897">
        <ele>1615.8</ele>
        <time>2015-03-18T16:22:26Z</time>
      </trkpt>
      <trkpt lat="45.831464686901" lon="7.821780286871">
        <ele>1615.8</ele>
        <time>2015-03-18T16:22:27Z</time>
      </trkpt>
      <trkpt lat="45.831510116799" lon="7.821753213334">
        <ele>1616</ele>
        <time>2015-03-18T16:22:29Z</time>
      </trkpt>
      <trkpt lat="45.831555630516" lon="7.821716752069">
        <ele>1616.6</ele>
        <time>2015-03-18T16:22:31Z</time>
      </trkpt>
      <trkpt lat="45.831622434259" lon="7.821654306914">
        <ele>1617</ele>
        <time>2015-03-18T16:22:34Z</time>
      </trkpt>
      <trkpt lat="45.831705079793" lon="7.821570739371">
        <ele>1617.4</ele>
        <time>2015-03-18T16:22:38Z</time>
      </trkpt>
      <trkpt lat="45.831733159158" lon="7.821540313074">
        <ele>1617.6</ele>
        <time>2015-03-18T16:22:39Z</time>
      </trkpt>
      <trkpt lat="45.831820414737" lon="7.8214610203">
        <ele>1617.8</ele>
        <time>2015-03-18T16:22:42Z</time>
      </trkpt>
      <trkpt lat="45.831905574841" lon="7.821369238495">
        <ele>1617.8</ele>
        <time>2015-03-18T16:22:45Z</time>
      </trkpt>
      <trkpt lat="45.831987382185" lon="7.821284329848">
        <ele>1618.2</ele>
        <time>2015-03-18T16:22:48Z</time>
      </trkpt>
      <trkpt lat="45.832101376025" lon="7.82118274122">
        <ele>1618.4</ele>
        <time>2015-03-18T16:22:52Z</time>
      </trkpt>
      <trkpt lat="45.832166671026" lon="7.821121804807">
        <ele>1618.4</ele>
        <time>2015-03-18T16:22:55Z</time>
      </trkpt>
      <trkpt lat="45.832225763421" lon="7.821036728522">
        <ele>1618.8</ele>
        <time>2015-03-18T16:22:58Z</time>
      </trkpt>
      <trkpt lat="45.832247472542" lon="7.820999009972">
        <ele>1619</ele>
        <time>2015-03-18T16:22:59Z</time>
      </trkpt>
      <trkpt lat="45.832268343473" lon="7.820981407982">
        <ele>1619</ele>
        <time>2015-03-18T16:23:00Z</time>
      </trkpt>
      <trkpt lat="45.832307486946" lon="7.820933044419">
        <ele>1619.4</ele>
        <time>2015-03-18T16:23:02Z</time>
      </trkpt>
      <trkpt lat="45.832326681497" lon="7.820919214284">
        <ele>1619.8</ele>
        <time>2015-03-18T16:23:04Z</time>
      </trkpt>
      <trkpt lat="45.832319137787" lon="7.820925668347">
        <ele>1620.2</ele>
        <time>2015-03-18T16:23:05Z</time>
      </trkpt>
      <trkpt lat="45.832478393887" lon="7.821107974672">
        <ele>1620.8</ele>
        <time>2015-03-18T16:23:35Z</time>
      </trkpt>
      <trkpt lat="45.832488368348" lon="7.821126833947">
        <ele>1620.8</ele>
        <time>2015-03-18T16:23:36Z</time>
      </trkpt>
      <trkpt lat="45.832540000852" lon="7.821218029019">
        <ele>1621.2</ele>
        <time>2015-03-18T16:23:41Z</time>
      </trkpt>
    </trkseg>
  </trk>
</gpx>